createdAt,value
2023-01-11T00:03:25.411Z,2.76
2023-01-11T00:08:47.634Z,2.74
2023-01-11T00:14:10.136Z,2.73
2023-01-11T00:19:32.512Z,2.65
2023-01-11T00:24:54.895Z,2.58
2023-01-11T00:30:17.935Z,2.49
2023-01-11T00:35:41.740Z,2.37
2023-01-11T00:41:05.641Z,2.27
2023-01-11T00:46:45.560Z,2.31
2023-01-11T00:52:09.829Z,2.20
2023-01-11T00:57:32.499Z,2.10
2023-01-11T01:02:54.855Z,2.11
2023-01-11T01:08:17.419Z,2.09
2023-01-11T01:13:57.196Z,2.10
2023-01-11T01:19:19.775Z,2.25
2023-01-11T01:24:42.340Z,2.29
2023-01-11T01:30:05.090Z,2.24
2023-01-11T01:35:27.900Z,2.15
2023-01-11T01:40:57.763Z,2.03
2023-01-11T01:46:20.040Z,2.13
2023-01-11T01:51:55.702Z,2.27
2023-01-11T01:57:22.787Z,2.30
2023-01-11T02:02:46.225Z,2.33
2023-01-11T02:08:10.817Z,2.44
2023-01-11T02:13:35.245Z,2.48
2023-01-11T02:18:57.618Z,2.52
2023-01-11T02:24:46.047Z,2.49
2023-01-11T02:30:19.068Z,2.48
2023-01-11T02:35:59.302Z,2.45
2023-01-11T02:47:35.442Z,2.54
2023-01-11T02:53:17.401Z,2.41
2023-01-11T02:58:43.709Z,2.34
2023-01-11T03:04:06.394Z,2.21
2023-01-11T03:09:48.856Z,2.05
2023-01-11T03:15:41.977Z,2.03
2023-01-11T03:21:09.812Z,1.98
2023-01-11T03:26:54.399Z,1.90
2023-01-11T03:32:50.379Z,1.87
2023-01-11T03:38:22.908Z,1.81
2023-01-11T03:43:49.282Z,1.75
2023-01-11T03:49:25.590Z,1.76
2023-01-11T03:54:50.799Z,1.64
2023-01-11T04:00:14.367Z,1.70
2023-01-11T04:05:36.870Z,1.69
2023-01-11T04:10:59.389Z,1.57
2023-01-11T04:16:21.750Z,1.56
2023-01-11T04:21:44.032Z,1.44
2023-01-11T04:27:06.333Z,1.33
2023-01-11T04:32:29.436Z,1.35
2023-01-11T04:37:51.800Z,1.38
2023-01-11T04:43:14.018Z,1.26
2023-01-11T04:48:36.367Z,1.20
2023-01-11T04:54:00.122Z,1.21
2023-01-11T04:59:22.363Z,1.21
2023-01-11T05:04:45.087Z,1.17
2023-01-11T05:10:07.627Z,1.08
2023-01-11T05:15:29.962Z,1.08
2023-01-11T05:20:53.839Z,0.97
2023-01-11T05:26:23.610Z,0.92
2023-01-11T05:31:47.346Z,0.84
2023-01-11T05:37:09.677Z,0.74
2023-01-11T05:42:31.890Z,0.73
2023-01-11T05:47:54.320Z,0.80
2023-01-11T05:53:16.808Z,0.81
2023-01-11T05:58:39.698Z,0.79
2023-01-11T06:04:01.998Z,0.80
2023-01-11T06:09:24.349Z,0.89
2023-01-11T06:14:46.705Z,0.97
2023-01-11T06:20:08.919Z,0.88
2023-01-11T06:25:31.134Z,0.79
2023-01-11T06:30:59.609Z,0.79
2023-01-11T06:36:29.607Z,0.72
2023-01-11T06:41:51.055Z,0.72
2023-01-11T06:47:13.468Z,0.70
2023-01-11T06:52:35.771Z,0.65
2023-01-11T06:57:57.949Z,0.64
2023-01-11T07:03:24.563Z,0.58
2023-01-11T07:08:47.047Z,0.56
2023-01-11T07:14:11.642Z,0.69
2023-01-11T07:19:34.257Z,0.80
2023-01-11T07:24:57.389Z,0.97
2023-01-11T07:30:20.204Z,1.06
2023-01-11T07:35:42.668Z,1.22
2023-01-11T07:41:06.620Z,1.37
2023-01-11T07:46:29.067Z,1.54
2023-01-11T07:51:53.011Z,1.66
2023-01-11T07:57:15.850Z,1.81
2023-01-11T08:02:38.188Z,1.95
2023-01-11T08:08:02.129Z,2.05
2023-01-11T08:13:43.992Z,2.16
2023-01-11T08:19:06.297Z,2.25
2023-01-11T08:24:29.500Z,2.33
2023-01-11T08:29:51.877Z,2.44
2023-01-11T08:35:14.575Z,2.54
2023-01-11T08:40:38.596Z,2.63
2023-01-11T08:46:02.550Z,2.70
2023-01-11T08:51:25.072Z,2.79
2023-01-11T08:56:47.325Z,2.85
2023-01-11T09:02:11.167Z,2.92
2023-01-11T09:07:33.352Z,2.97
2023-01-11T09:12:56.257Z,3.02
2023-01-11T09:18:19.647Z,3.06
2023-01-11T09:23:43.716Z,3.08
2023-01-11T09:29:06.108Z,3.13
2023-01-11T09:34:28.598Z,3.19
2023-01-11T09:39:51.944Z,3.24
2023-01-11T09:45:32.913Z,3.31
2023-01-11T09:50:57.988Z,3.34
2023-01-11T09:56:28.979Z,3.39
2023-01-11T10:02:00.875Z,3.49
2023-01-11T10:19:39.429Z,3.74
2023-01-11T10:25:13.911Z,3.82
2023-01-11T10:30:59.473Z,3.91
2023-01-11T10:37:00.252Z,3.92
2023-01-11T10:42:39.068Z,4.11
2023-01-11T10:48:34.150Z,4.04
2023-01-11T10:54:29.072Z,4.08
2023-01-11T11:00:17.909Z,4.12
2023-01-11T11:12:06.591Z,4.30
2023-01-11T11:17:39.704Z,4.19
2023-01-11T11:23:03.482Z,4.26
2023-01-11T11:28:37.082Z,4.28
2023-01-11T11:34:00.053Z,4.34
2023-01-11T11:39:30.166Z,4.35
2023-01-11T11:44:52.703Z,4.35
2023-01-11T11:50:48.610Z,4.35
2023-01-11T11:55:57.613Z,4.37
2023-01-11T12:01:38.969Z,4.39
2023-01-11T12:07:15.660Z,4.38
2023-01-11T12:12:39.842Z,4.39
2023-01-11T12:18:02.648Z,4.41
2023-01-11T12:23:36.539Z,4.42
2023-01-11T12:29:09.746Z,4.42
2023-01-11T12:34:55.148Z,4.43
2023-01-11T12:40:34.331Z,4.43
2023-01-11T12:46:14.516Z,4.43
2023-01-11T12:52:05.767Z,4.41
2023-01-11T12:58:05.314Z,4.43
2023-01-11T13:03:38.092Z,4.44
2023-01-11T13:09:16.646Z,4.44
2023-01-11T13:15:20.465Z,4.47
2023-01-11T13:21:01.651Z,4.46
2023-01-11T13:26:36.035Z,4.46
2023-01-11T13:32:01.504Z,4.49
2023-01-11T13:37:42.581Z,4.47
2023-01-11T13:43:16.441Z,4.46
2023-01-11T13:48:58.315Z,4.44
2023-01-11T13:54:56.438Z,4.43
2023-01-11T14:00:31.336Z,4.41
2023-01-11T14:06:01.281Z,4.44
2023-01-11T14:11:26.811Z,4.46
2023-01-11T14:17:06.261Z,4.46
2023-01-11T14:23:04.525Z,4.47
2023-01-11T14:28:48.299Z,4.45
2023-01-11T14:35:02.479Z,4.46
2023-01-11T14:41:00.573Z,4.58
2023-01-11T14:46:46.640Z,4.51
2023-01-11T14:52:38.445Z,4.50
2023-01-11T14:58:08.732Z,4.47
2023-01-11T15:03:50.974Z,4.46
2023-01-11T15:09:14.681Z,4.44
2023-01-11T15:14:46.037Z,4.48
2023-01-11T15:20:19.239Z,4.50
2023-01-11T15:25:53.900Z,4.60
2023-01-11T15:31:35.771Z,4.53
2023-01-11T15:37:27.151Z,4.51
2023-01-11T15:43:45.962Z,4.51
2023-01-11T15:49:41.767Z,4.51
2023-01-11T15:55:30.078Z,4.50
2023-01-11T16:01:30.198Z,4.48
2023-01-11T16:07:01.576Z,4.46
2023-01-11T16:12:45.228Z,4.44
2023-01-11T16:18:12.274Z,4.53
2023-01-11T16:23:37.220Z,4.50
2023-01-11T16:29:10.681Z,4.50
2023-01-11T16:34:35.892Z,4.53
2023-01-11T16:40:02.762Z,4.53
2023-01-11T16:45:30.651Z,4.53
2023-01-11T16:56:51.445Z,4.64
2023-01-11T17:02:20.386Z,4.52
2023-01-11T17:07:47.329Z,4.53
2023-01-11T17:13:41.014Z,4.52
2023-01-11T17:19:05.181Z,4.49
2023-01-11T17:24:31.091Z,4.49
2023-01-11T17:30:00.563Z,4.46
2023-01-11T17:35:41.795Z,4.45
2023-01-11T17:41:06.814Z,4.42
2023-01-11T17:46:38.359Z,4.44
2023-01-11T17:52:01.144Z,4.47
2023-01-11T17:57:24.335Z,4.53
2023-01-11T18:02:48.736Z,4.51
2023-01-11T18:08:12.791Z,4.19
2023-01-11T18:13:45.192Z,3.88
2023-01-11T18:19:09.228Z,3.71
2023-01-11T18:24:45.373Z,3.58
2023-01-11T18:30:11.629Z,3.52
2023-01-11T18:35:35.349Z,3.52
2023-01-11T18:40:59.329Z,3.50
2023-01-11T18:46:22.149Z,3.44
2023-01-11T18:51:48.289Z,3.38
2023-01-11T18:57:11.144Z,3.34
2023-01-11T19:02:55.493Z,3.30
2023-01-11T19:08:19.370Z,3.30
2023-01-11T19:13:42.204Z,3.29
2023-01-11T19:19:11.029Z,3.29
2023-01-11T19:24:33.280Z,3.29
2023-01-11T19:29:57.168Z,3.31
2023-01-11T19:35:25.904Z,3.32
2023-01-11T19:40:50.342Z,3.35
2023-01-11T19:46:30.203Z,3.34
2023-01-11T19:51:41.014Z,3.36
2023-01-11T19:57:05.225Z,3.39
2023-01-11T20:02:29.786Z,3.40
2023-01-11T20:07:54.239Z,3.43
2023-01-11T20:13:16.612Z,3.48
2023-01-11T20:18:38.902Z,3.50
2023-01-11T20:24:02.243Z,3.56
2023-01-11T20:29:25.538Z,3.60
2023-01-11T20:34:48.007Z,3.62
2023-01-11T20:40:14.353Z,3.69
2023-01-11T20:45:36.599Z,3.75
2023-01-11T20:50:58.829Z,3.78
2023-01-11T20:56:22.691Z,3.84
2023-01-11T21:01:45.100Z,3.89
2023-01-11T21:07:07.413Z,3.94
2023-01-11T21:12:29.613Z,3.98
2023-01-11T21:17:51.824Z,4.01
2023-01-11T21:23:15.668Z,4.06
2023-01-11T21:28:38.283Z,4.11
2023-01-11T21:34:01.332Z,4.18
2023-01-11T21:39:27.075Z,4.22
2023-01-11T21:44:50.804Z,4.28
2023-01-11T21:50:14.411Z,4.33
2023-01-11T21:55:36.631Z,4.38
2023-01-11T22:00:58.929Z,4.40
2023-01-11T22:06:22.179Z,4.45
2023-01-11T22:11:45.905Z,4.47
2023-01-11T22:17:09.295Z,4.48
2023-01-11T22:22:31.489Z,4.50
2023-01-11T22:27:53.767Z,4.53
2023-01-11T22:33:17.570Z,4.55
2023-01-11T22:38:39.842Z,4.57
2023-01-11T22:44:02.764Z,4.60
2023-01-11T22:49:25.622Z,4.64
2023-01-11T22:54:48.282Z,4.67
2023-01-11T23:00:11.797Z,4.71
2023-01-11T23:05:34.093Z,4.74
2023-01-11T23:10:56.371Z,4.79
2023-01-11T23:16:18.882Z,4.82
2023-01-11T23:21:41.800Z,4.84
2023-01-11T23:27:04.332Z,4.88
2023-01-11T23:32:28.093Z,4.90
2023-01-11T23:37:50.629Z,4.92
2023-01-11T23:43:13.580Z,4.93
2023-01-11T23:48:37.440Z,4.93
2023-01-11T23:54:00.588Z,4.96
2023-01-11T23:59:24.303Z,4.97
